createdAt,value
2023-01-06T00:00:39.251Z,100130.04
2023-01-06T00:03:18.983Z,100123.87
2023-01-06T00:05:46.094Z,100126.27
2023-01-06T00:08:13.067Z,100133.81
2023-01-06T00:10:40.545Z,100134.67
2023-01-06T00:13:07.660Z,100143.77
2023-01-06T00:15:34.682Z,100155.08
2023-01-06T00:18:01.946Z,100149.60
2023-01-06T00:20:29.182Z,100150.11
2023-01-06T00:22:56.120Z,100161.94
2023-01-06T00:25:23.504Z,100165.88
2023-01-06T00:27:50.443Z,100173.96
2023-01-06T00:30:17.491Z,100171.73
2023-01-06T00:32:45.239Z,100177.40
2023-01-06T00:35:12.950Z,100184.26
2023-01-06T00:37:39.983Z,100187.86
2023-01-06T00:40:08.719Z,100199.52
2023-01-06T00:42:37.988Z,100203.46
2023-01-06T00:45:05.144Z,100207.40
2023-01-06T00:47:32.522Z,100207.23
2023-01-06T00:49:59.471Z,100216.33
2023-01-06T00:52:26.616Z,100215.46
2023-01-06T00:54:53.622Z,100222.50
2023-01-06T00:57:20.577Z,100220.44
2023-01-06T00:59:47.505Z,100223.66
2023-01-06T01:02:14.811Z,100227.77
2023-01-06T01:04:41.947Z,100230.17
2023-01-06T01:07:10.516Z,100234.59
2023-01-06T01:09:39.335Z,100233.21
2023-01-06T01:12:13.194Z,100231.16
2023-01-06T01:14:47.043Z,100235.13
2023-01-06T01:17:16.710Z,100246.98
2023-01-06T01:19:44.029Z,100256.57
2023-01-06T01:22:11.961Z,100267.88
2023-01-06T01:24:39.126Z,100267.15
2023-01-06T01:27:06.394Z,100267.14
2023-01-06T01:29:34.053Z,100277.41
2023-01-06T01:32:01.250Z,100286.64
2023-01-06T01:34:28.508Z,100292.27
2023-01-06T01:36:57.014Z,100300.16
2023-01-06T01:39:26.090Z,100299.30
2023-01-06T01:41:53.615Z,100313.36
2023-01-06T01:45:02.565Z,100318.02
2023-01-06T01:47:46.296Z,100315.98
2023-01-06T01:50:21.276Z,100317.88
2023-01-06T01:52:52.082Z,100327.64
2023-01-06T01:55:19.838Z,100336.38
2023-01-06T01:57:53.175Z,100333.96
2023-01-06T02:00:21.397Z,100327.12
2023-01-06T02:02:48.578Z,100323.86
2023-01-06T02:05:19.928Z,100335.86
2023-01-06T02:07:47.778Z,100347.86
2023-01-06T02:10:18.199Z,100354.89
2023-01-06T02:12:47.289Z,100361.91
2023-01-06T02:15:25.093Z,100367.23
2023-01-06T02:18:18.215Z,100365.52
2023-01-06T02:21:03.327Z,100361.03
2023-01-06T02:24:03.420Z,100369.39
2023-01-06T02:27:09.741Z,100375.37
2023-01-06T02:30:27.911Z,100386.50
2023-01-06T02:33:00.813Z,100395.05
2023-01-06T02:35:55.485Z,100397.80
2023-01-06T02:38:36.166Z,100405.85
2023-01-06T02:41:23.376Z,100407.91
2023-01-06T02:43:54.076Z,100406.20
2023-01-06T02:46:32.116Z,100415.63
2023-01-06T02:49:11.543Z,100428.11
2023-01-06T02:51:46.356Z,100428.28
2023-01-06T02:54:21.844Z,100432.89
2023-01-06T02:56:55.777Z,100435.13
2023-01-06T02:59:28.094Z,100443.19
2023-01-06T03:01:58.033Z,100447.30
2023-01-06T03:04:30.413Z,100450.41
2023-01-06T03:07:02.533Z,100446.98
2023-01-06T03:09:34.383Z,100446.27
2023-01-06T03:12:07.610Z,100449.86
2023-01-06T03:14:39.143Z,100457.35
2023-01-06T03:17:06.757Z,100452.51
2023-01-06T03:19:35.208Z,100451.80
2023-01-06T03:22:04.703Z,100462.41
2023-01-06T03:24:31.764Z,100463.60
2023-01-06T03:27:00.429Z,100472.19
2023-01-06T03:29:27.905Z,100473.41
2023-01-06T03:32:02.980Z,100476.34
2023-01-06T03:34:44.861Z,100474.48
2023-01-06T03:37:23.048Z,100473.46
2023-01-06T03:39:59.326Z,100483.75
2023-01-06T03:42:52.971Z,100487.67
2023-01-06T03:45:36.205Z,100491.95
2023-01-06T03:48:10.948Z,100493.15
2023-01-06T03:50:41.624Z,100496.39
2023-01-06T03:53:19.673Z,100495.70
2023-01-06T03:55:52.130Z,100501.70
2023-01-06T03:58:21.352Z,100507.02
2023-01-06T04:00:49.708Z,100502.91
2023-01-06T04:03:17.886Z,100506.21
2023-01-06T04:05:45.707Z,100508.63
2023-01-06T04:08:13.303Z,100510.18
2023-01-06T04:10:40.844Z,100509.51
2023-01-06T04:13:08.074Z,100510.02
2023-01-06T04:15:35.149Z,100517.20
2023-01-06T04:18:05.608Z,100515.95
2023-01-06T04:20:34.934Z,100522.81
2023-01-06T04:23:15.035Z,100520.91
2023-01-06T04:25:44.914Z,100520.73
2023-01-06T04:28:18.594Z,100522.63
2023-01-06T04:30:45.803Z,100529.79
2023-01-06T04:33:12.755Z,100528.73
2023-01-06T04:35:40.316Z,100525.63
2023-01-06T04:38:07.709Z,100529.71
2023-01-06T04:40:34.586Z,100533.48
2023-01-06T04:43:07.834Z,100529.39
2023-01-06T04:45:35.668Z,100523.55
2023-01-06T04:48:02.946Z,100529.18
2023-01-06T04:50:29.923Z,100531.86
2023-01-06T04:52:58.412Z,100535.77
2023-01-06T04:55:25.431Z,100533.55
2023-01-06T04:57:52.669Z,100533.89
2023-01-06T05:00:20.737Z,100536.30
2023-01-06T05:02:48.157Z,100527.44
2023-01-06T05:05:16.040Z,100524.42
2023-01-06T05:07:43.333Z,100526.85
2023-01-06T05:10:12.018Z,100529.08
2023-01-06T05:12:39.153Z,100523.43
2023-01-06T05:15:07.250Z,100519.47
2023-01-06T05:17:34.190Z,100526.61
2023-01-06T05:20:01.314Z,100530.98
2023-01-06T05:22:28.685Z,100532.31
2023-01-06T05:24:55.642Z,100535.18
2023-01-06T05:27:23.070Z,100541.47
2023-01-06T05:29:50.636Z,100547.94
2023-01-06T05:32:17.626Z,100560.07
2023-01-06T05:34:44.580Z,100563.84
2023-01-06T05:37:12.586Z,100566.41
2023-01-06T05:39:39.524Z,100562.81
2023-01-06T05:42:06.472Z,100562.14
2023-01-06T05:44:33.653Z,100565.98
2023-01-06T05:47:00.581Z,100571.16
2023-01-06T05:49:27.534Z,100575.62
2023-01-06T05:51:55.121Z,100582.08
2023-01-06T05:54:22.283Z,100584.45
2023-01-06T05:56:49.322Z,100585.77
2023-01-06T05:59:16.570Z,100582.32
2023-01-06T06:01:43.656Z,100588.56
2023-01-06T06:04:12.665Z,100594.95
2023-01-06T06:06:39.950Z,100601.40
2023-01-06T06:09:07.240Z,100609.59
2023-01-06T06:11:34.221Z,100608.05
2023-01-06T06:14:01.624Z,100614.76
2023-01-06T06:16:29.649Z,100617.33
2023-01-06T06:18:58.773Z,100616.65
2023-01-06T06:21:27.641Z,100620.74
2023-01-06T06:23:55.407Z,100613.58
2023-01-06T06:26:22.677Z,100613.58
2023-01-06T06:28:50.036Z,100611.48
2023-01-06T06:31:20.565Z,100618.29
2023-01-06T06:33:50.675Z,100622.36
2023-01-06T06:36:17.789Z,100621.60
2023-01-06T06:38:45.528Z,100626.70
2023-01-06T06:41:12.542Z,100634.19
2023-01-06T06:43:39.720Z,100644.06
2023-01-06T06:46:07.336Z,100656.02
2023-01-06T06:48:34.344Z,100660.29
2023-01-06T06:51:02.301Z,100667.83
2023-01-06T06:53:29.648Z,100666.65
2023-01-06T06:55:57.084Z,100669.25
2023-01-06T06:58:24.441Z,100675.27
2023-01-06T07:00:51.474Z,100676.52
2023-01-06T07:03:18.560Z,100684.80
2023-01-06T07:05:46.660Z,100685.39
2023-01-06T07:08:14.787Z,100683.41
2023-01-06T07:10:41.941Z,100685.02
2023-01-06T07:13:09.351Z,100684.05
2023-01-06T07:15:36.583Z,100688.73
2023-01-06T07:18:05.136Z,100691.20
2023-01-06T07:20:32.921Z,100689.70
2023-01-06T07:22:59.885Z,100684.08
2023-01-06T07:25:27.065Z,100683.05
2023-01-06T07:27:58.299Z,100681.35
2023-01-06T07:30:26.196Z,100679.44
2023-01-06T07:32:53.462Z,100679.92
2023-01-06T07:35:21.093Z,100677.48
2023-01-06T07:37:48.003Z,100675.25
2023-01-06T07:40:15.811Z,100677.11
2023-01-06T07:42:43.044Z,100679.15
2023-01-06T07:45:11.981Z,100672.84
2023-01-06T07:47:39.187Z,100672.35
2023-01-06T07:50:07.029Z,100683.01
2023-01-06T07:52:34.098Z,100679.45
2023-01-06T07:55:02.879Z,100678.96
2023-01-06T07:57:30.652Z,100679.71
2023-01-06T07:59:57.841Z,100686.80
2023-01-06T08:02:25.701Z,100693.35
2023-01-06T08:04:53.016Z,100693.39
2023-01-06T08:07:19.987Z,100698.37
2023-01-06T08:09:47.029Z,100697.20
2023-01-06T08:12:14.014Z,100695.65
2023-01-06T08:14:41.047Z,100696.52
2023-01-06T08:17:08.421Z,100702.16
2023-01-06T08:19:35.419Z,100704.58
2023-01-06T08:22:02.452Z,100708.07
2023-01-06T08:24:31.856Z,100709.64
2023-01-06T08:27:00.016Z,100709.70
2023-01-06T08:29:27.056Z,100711.45
2023-01-06T08:32:02.225Z,100707.91
2023-01-06T08:34:36.595Z,100702.97
2023-01-06T08:37:04.669Z,100703.02
2023-01-06T08:39:31.678Z,100708.02
2023-01-06T08:41:58.695Z,100713.36
2023-01-06T08:44:26.026Z,100715.44
2023-01-06T08:46:52.964Z,100719.41
2023-01-06T08:49:20.623Z,100714.63
2023-01-06T08:51:47.687Z,100715.83
2023-01-06T08:54:15.471Z,100716.86
2023-01-06T08:56:43.640Z,100710.72
2023-01-06T08:59:13.850Z,100712.63
2023-01-06T09:01:40.892Z,100712.84
2023-01-06T09:04:10.236Z,100718.02
2023-01-06T09:06:38.045Z,100717.92
2023-01-06T09:09:06.625Z,100718.80
2023-01-06T09:11:34.293Z,100715.73
2023-01-06T09:14:01.300Z,100715.41
2023-01-06T09:16:28.343Z,100718.44
2023-01-06T09:18:55.352Z,100726.08
2023-01-06T09:21:24.601Z,100722.99
2023-01-06T09:23:51.900Z,100721.85
2023-01-06T09:26:21.732Z,100716.55
2023-01-06T09:28:49.177Z,100717.42
2023-01-06T09:31:18.166Z,100719.64
2023-01-06T09:33:45.314Z,100717.39
2023-01-06T09:36:12.711Z,100718.09
2023-01-06T09:38:39.705Z,100713.28
2023-01-06T09:41:22.511Z,100713.25
2023-01-06T09:43:55.174Z,100712.69
2023-01-06T09:46:27.710Z,100711.01
2023-01-06T09:49:00.929Z,100712.49
2023-01-06T09:51:31.392Z,100719.83
2023-01-06T09:54:02.761Z,100719.39
2023-01-06T09:56:30.720Z,100714.45
2023-01-06T09:59:06.067Z,100707.65
2023-01-06T10:01:39.077Z,100701.09
2023-01-06T10:04:06.427Z,100700.69
2023-01-06T10:06:38.268Z,100705.80
2023-01-06T10:09:14.600Z,100705.77
2023-01-06T10:11:58.016Z,100704.35
2023-01-06T10:14:38.958Z,100701.88
2023-01-06T10:17:22.181Z,100692.23
2023-01-06T10:20:05.790Z,100689.24
2023-01-06T10:22:41.199Z,100691.79
2023-01-06T10:25:19.557Z,100695.71
2023-01-06T10:27:52.764Z,100692.82
2023-01-06T10:30:24.809Z,100682.17
2023-01-06T10:32:53.589Z,100686.25
2023-01-06T10:35:25.696Z,100681.98
2023-01-06T10:37:54.625Z,100674.05
2023-01-06T10:40:25.589Z,100682.92
2023-01-06T10:43:00.315Z,100682.09
2023-01-06T10:45:32.464Z,100673.19
2023-01-06T10:48:01.395Z,100676.51
2023-01-06T10:50:28.730Z,100676.75
2023-01-06T10:52:56.103Z,100676.92
2023-01-06T10:55:35.181Z,100669.93
2023-01-06T10:58:08.102Z,100670.49
2023-01-06T11:00:35.601Z,100664.34
2023-01-06T11:03:32.415Z,100657.13
2023-01-06T11:06:07.251Z,100659.91
2023-01-06T11:08:35.705Z,100657.84
2023-01-06T11:11:02.895Z,100653.20
2023-01-06T11:13:34.591Z,100657.11
2023-01-06T11:16:04.257Z,100651.23
2023-01-06T11:18:33.820Z,100652.53
2023-01-06T11:21:07.633Z,100647.89
2023-01-06T11:23:35.734Z,100640.17
2023-01-06T11:26:14.232Z,100635.21
2023-01-06T11:28:41.878Z,100630.98
2023-01-06T11:31:12.020Z,100627.92
2023-01-06T11:33:48.671Z,100629.83
2023-01-06T11:36:17.932Z,100630.02
2023-01-06T11:38:48.791Z,100634.98
2023-01-06T11:41:25.175Z,100626.08
2023-01-06T11:43:53.061Z,100609.57
2023-01-06T11:46:25.705Z,100608.52
2023-01-06T11:49:00.054Z,100614.64
2023-01-06T11:51:47.776Z,100613.93
2023-01-06T11:54:26.681Z,100605.86
2023-01-06T11:57:02.957Z,100605.17
2023-01-06T11:59:32.712Z,100604.27
2023-01-06T12:02:01.381Z,100611.24
2023-01-06T12:04:35.174Z,100609.45
2023-01-06T12:07:10.132Z,100605.65
2023-01-06T12:09:44.588Z,100602.77
2023-01-06T12:12:18.611Z,100605.31
2023-01-06T12:14:45.749Z,100597.27
2023-01-06T12:17:19.653Z,100590.05
2023-01-06T12:19:50.036Z,100595.04
2023-01-06T12:22:25.999Z,100599.51
2023-01-06T12:24:56.595Z,100598.28
2023-01-06T12:27:31.576Z,100593.64
2023-01-06T12:30:05.123Z,100590.38
2023-01-06T12:32:37.500Z,100591.77
2023-01-06T12:35:07.147Z,100584.90
2023-01-06T12:37:39.595Z,100588.02
2023-01-06T12:40:17.105Z,100581.67
2023-01-06T12:42:51.660Z,100584.75
2023-01-06T12:45:25.640Z,100580.81
2023-01-06T12:47:55.415Z,100579.24
2023-01-06T12:50:34.496Z,100570.23
2023-01-06T12:53:12.951Z,100566.41
2023-01-06T12:55:56.120Z,100574.77
2023-01-06T12:58:28.892Z,100580.41
2023-01-06T13:01:01.861Z,100589.66
2023-01-06T13:03:55.555Z,100587.09
2023-01-06T13:06:33.769Z,100589.29
2023-01-06T13:09:14.798Z,100589.08
2023-01-06T13:12:02.786Z,100588.52
2023-01-06T13:14:39.680Z,100584.53
2023-01-06T13:17:13.677Z,100578.69
2023-01-06T13:19:48.205Z,100578.34
2023-01-06T13:22:19.225Z,100574.56
2023-01-06T13:25:01.457Z,100574.55
2023-01-06T13:27:40.866Z,100570.77
2023-01-06T13:30:41.684Z,100567.49
2023-01-06T13:33:38.258Z,100554.95
2023-01-06T13:36:24.358Z,100555.09
2023-01-06T13:39:00.408Z,100554.39
2023-01-06T13:41:31.527Z,100551.45
2023-01-06T13:44:01.679Z,100552.11
2023-01-06T13:46:31.855Z,100551.23
2023-01-06T13:49:03.354Z,100548.98
2023-01-06T13:51:34.174Z,100537.98
2023-01-06T13:54:03.035Z,100527.30
2023-01-06T13:56:33.234Z,100526.92
2023-01-06T13:59:24.017Z,100525.52
2023-01-06T14:01:52.696Z,100517.95
2023-01-06T14:04:49.943Z,100517.25
2023-01-06T14:07:31.349Z,100510.58
2023-01-06T14:09:58.513Z,100499.27
2023-01-06T14:12:26.659Z,100500.46
2023-01-06T14:15:07.923Z,100496.88
2023-01-06T14:17:42.064Z,100500.50
2023-01-06T14:20:27.733Z,100501.88
2023-01-06T14:23:04.920Z,100501.23
2023-01-06T14:25:34.480Z,100503.83
2023-01-06T14:28:31.173Z,100500.27
2023-01-06T14:31:28.931Z,100511.75
2023-01-06T14:33:56.428Z,100520.03
2023-01-06T14:36:24.688Z,100523.08
2023-01-06T14:38:55.112Z,100532.29
2023-01-06T14:41:27.647Z,100543.74
2023-01-06T14:43:58.913Z,100541.52
2023-01-06T14:46:30.473Z,100539.79
2023-01-06T14:49:01.724Z,100544.08
2023-01-06T14:51:30.476Z,100546.46
2023-01-06T14:54:04.480Z,100547.83
2023-01-06T14:56:35.943Z,100545.56
2023-01-06T14:59:21.645Z,100541.61
2023-01-06T15:01:58.750Z,100531.67
2023-01-06T15:04:30.266Z,100534.91
2023-01-06T15:07:15.581Z,100523.21
2023-01-06T15:09:42.929Z,100522.00
2023-01-06T15:12:27.739Z,100516.69
2023-01-06T15:14:55.381Z,100508.45
2023-01-06T15:17:23.435Z,100498.52
2023-01-06T15:19:53.225Z,100491.50
2023-01-06T15:22:24.950Z,100486.20
2023-01-06T15:24:52.465Z,100477.65
2023-01-06T15:27:20.819Z,100472.52
2023-01-06T15:29:55.603Z,100480.52
2023-01-06T15:32:25.579Z,100473.83
2023-01-06T15:34:54.256Z,100469.67
2023-01-06T15:37:25.718Z,100462.11
2023-01-06T15:39:53.780Z,100466.37
2023-01-06T15:42:25.866Z,100465.16
2023-01-06T15:45:02.027Z,100459.16
2023-01-06T15:47:35.509Z,100459.31
2023-01-06T15:50:05.001Z,100457.77
2023-01-06T15:52:35.569Z,100463.80
2023-01-06T15:55:06.177Z,100457.84
2023-01-06T15:57:37.350Z,100462.80
2023-01-06T16:00:07.531Z,100459.38
2023-01-06T16:02:35.667Z,100457.16
2023-01-06T16:05:03.246Z,100461.10
2023-01-06T16:07:40.718Z,100460.75
2023-01-06T16:10:40.775Z,100462.58
2023-01-06T16:13:19.827Z,100455.18
2023-01-06T16:15:52.616Z,100444.73
2023-01-06T16:18:27.290Z,100440.46
2023-01-06T16:20:54.453Z,100441.88
2023-01-06T16:23:28.625Z,100438.33
2023-01-06T16:26:07.142Z,100432.02
2023-01-06T16:28:34.876Z,100425.19
2023-01-06T16:31:12.199Z,100424.80
2023-01-06T16:33:42.488Z,100424.96
2023-01-06T16:36:14.874Z,100413.98
2023-01-06T16:38:42.311Z,100412.39
2023-01-06T16:41:14.096Z,100406.52
2023-01-06T16:43:41.194Z,100403.21
2023-01-06T16:46:15.749Z,100408.44
2023-01-06T16:48:43.021Z,100400.02
2023-01-06T16:51:15.895Z,100395.20
2023-01-06T16:53:44.917Z,100398.23
2023-01-06T16:56:19.500Z,100396.61
2023-01-06T16:58:47.107Z,100393.31
2023-01-06T17:01:18.744Z,100398.23
2023-01-06T17:03:46.434Z,100397.18
2023-01-06T17:06:18.223Z,100394.78
2023-01-06T17:08:45.361Z,100384.32
2023-01-06T17:11:17.678Z,100381.04
2023-01-06T17:13:51.241Z,100375.33
2023-01-06T17:16:21.586Z,100366.39
2023-01-06T17:18:54.821Z,100362.26
2023-01-06T17:21:24.743Z,100366.84
2023-01-06T17:23:54.419Z,100362.73
2023-01-06T17:26:24.765Z,100366.34
2023-01-06T17:28:53.751Z,100361.73
2023-01-06T17:31:28.299Z,100357.97
2023-01-06T17:33:56.809Z,100355.40
2023-01-06T17:36:31.161Z,100352.97
2023-01-06T17:38:58.513Z,100354.33
2023-01-06T17:41:25.709Z,100354.19
2023-01-06T17:43:53.025Z,100357.79
2023-01-06T17:46:29.836Z,100354.04
2023-01-06T17:49:07.488Z,100351.34
2023-01-06T17:51:39.753Z,100347.92
2023-01-06T17:54:36.695Z,100341.27
2023-01-06T17:57:12.968Z,100332.89
2023-01-06T17:59:42.264Z,100333.23
2023-01-06T18:02:31.258Z,100336.67
2023-01-06T18:04:59.482Z,100326.09
2023-01-06T18:07:27.172Z,100324.55
2023-01-06T18:09:55.028Z,100317.75
2023-01-06T18:12:22.372Z,100314.33
2023-01-06T18:14:49.410Z,100317.07
2023-01-06T18:17:24.775Z,100312.77
2023-01-06T18:19:51.949Z,100317.17
2023-01-06T18:22:21.479Z,100307.73
2023-01-06T18:24:51.540Z,100303.45
2023-01-06T18:27:23.728Z,100300.88
2023-01-06T18:29:51.479Z,100308.06
2023-01-06T18:32:32.051Z,100303.48
2023-01-06T18:35:00.603Z,100307.94
2023-01-06T18:37:30.004Z,100304.71
2023-01-06T18:40:02.192Z,100293.11
2023-01-06T18:42:32.368Z,100279.79
2023-01-06T18:45:23.135Z,100271.08
2023-01-06T18:47:53.904Z,100263.06
2023-01-06T18:50:27.964Z,100269.08
2023-01-06T18:52:56.076Z,100263.42
2023-01-06T18:55:27.513Z,100266.83
2023-01-06T18:57:58.854Z,100262.55
2023-01-06T19:00:37.380Z,100260.34
2023-01-06T19:03:23.867Z,100252.82
2023-01-06T19:05:53.527Z,100247.50
2023-01-06T19:08:24.128Z,100251.45
2023-01-06T19:10:52.729Z,100254.00
2023-01-06T19:13:23.987Z,100248.68
2023-01-06T19:15:51.409Z,100241.84
2023-01-06T19:18:19.887Z,100248.70
2023-01-06T19:20:48.072Z,100244.77
2023-01-06T19:23:20.311Z,100237.09
2023-01-06T19:25:51.581Z,100235.06
2023-01-06T19:28:23.128Z,100238.35
2023-01-06T19:30:54.940Z,100229.63
2023-01-06T19:33:38.008Z,100237.52
2023-01-06T19:36:35.892Z,100236.16
2023-01-06T19:39:09.390Z,100236.17
2023-01-06T19:41:36.704Z,100241.12
2023-01-06T19:44:13.875Z,100236.31
2023-01-06T19:46:43.134Z,100224.86
2023-01-06T19:49:17.004Z,100226.39
2023-01-06T19:51:44.000Z,100222.58
2023-01-06T19:54:24.234Z,100222.92
2023-01-06T19:56:51.992Z,100217.98
2023-01-06T19:59:25.378Z,100219.21
2023-01-06T20:02:03.557Z,100204.37
2023-01-06T20:04:31.000Z,100208.49
2023-01-06T20:06:57.987Z,100211.41
2023-01-06T20:09:25.020Z,100210.92
2023-01-06T20:11:52.788Z,100214.36
2023-01-06T20:14:20.148Z,100209.59
2023-01-06T20:16:56.018Z,100204.50
2023-01-06T20:19:23.217Z,100215.81
2023-01-06T20:21:50.222Z,100213.94
2023-01-06T20:24:17.602Z,100214.27
2023-01-06T20:26:44.837Z,100216.16
2023-01-06T20:29:12.799Z,100215.81
2023-01-06T20:31:40.412Z,100206.88
2023-01-06T20:34:07.486Z,100213.69
2023-01-06T20:37:01.265Z,100219.33
2023-01-06T20:39:29.847Z,100218.96
2023-01-06T20:41:57.621Z,100224.09
2023-01-06T20:44:24.709Z,100222.89
2023-01-06T20:46:51.824Z,100218.27
2023-01-06T20:49:20.602Z,100218.61
2023-01-06T20:51:47.765Z,100222.88
2023-01-06T20:54:14.778Z,100225.95
2023-01-06T20:56:42.023Z,100224.42
2023-01-06T20:59:09.106Z,100227.15
2023-01-06T21:01:36.180Z,100235.36
2023-01-06T21:04:03.531Z,100230.41
2023-01-06T21:06:30.797Z,100231.45
2023-01-06T21:08:57.774Z,100236.25
2023-01-06T21:11:25.047Z,100235.73
2023-01-06T21:13:52.257Z,100238.64
2023-01-06T21:16:19.347Z,100229.42
2023-01-06T21:18:46.509Z,100227.24
2023-01-06T21:21:13.488Z,100228.29
2023-01-06T21:23:40.833Z,100226.76
2023-01-06T21:26:08.469Z,100227.11
2023-01-06T21:28:35.582Z,100222.33
2023-01-06T21:31:02.624Z,100227.62
2023-01-06T21:33:29.759Z,100223.52
2023-01-06T21:35:56.710Z,100221.98
2023-01-06T21:38:24.025Z,100221.98
2023-01-06T21:40:51.337Z,100216.86
2023-01-06T21:43:19.442Z,100224.23
2023-01-06T21:45:48.096Z,100223.91
2023-01-06T21:48:15.729Z,100223.09
2023-01-06T21:50:45.125Z,100216.80
2023-01-06T21:53:14.027Z,100216.50
2023-01-06T21:55:41.744Z,100220.77
2023-01-06T21:58:09.120Z,100219.41
2023-01-06T22:00:36.124Z,100219.57
2023-01-06T22:03:03.389Z,100221.97
2023-01-06T22:05:31.507Z,100227.59
2023-01-06T22:07:58.774Z,100225.20
2023-01-06T22:10:27.864Z,100229.27
2023-01-06T22:12:59.782Z,100229.09
2023-01-06T22:15:27.805Z,100234.05
2023-01-06T22:17:58.049Z,100236.98
2023-01-06T22:20:25.630Z,100242.83
2023-01-06T22:22:53.074Z,100240.98
2023-01-06T22:25:20.145Z,100245.80
2023-01-06T22:27:47.344Z,100243.14
2023-01-06T22:30:15.403Z,100245.59
2023-01-06T22:32:50.077Z,100244.60
2023-01-06T22:35:18.694Z,100242.59
2023-01-06T22:37:46.479Z,100246.23
2023-01-06T22:40:15.821Z,100247.43
2023-01-06T22:42:43.323Z,100251.02
2023-01-06T22:45:12.794Z,100251.55
2023-01-06T22:47:40.107Z,100254.96
2023-01-06T22:50:09.303Z,100258.56
2023-01-06T22:52:36.352Z,100254.63
2023-01-06T22:55:03.806Z,100250.18
2023-01-06T22:57:31.058Z,100250.19
2023-01-06T23:00:00.297Z,100250.02
2023-01-06T23:02:27.855Z,100250.35
2023-01-06T23:04:55.624Z,100250.35
2023-01-06T23:07:22.626Z,100253.77
2023-01-06T23:09:49.765Z,100252.05
2023-01-06T23:12:16.990Z,100259.75
2023-01-06T23:14:44.033Z,100261.97
2023-01-06T23:17:11.815Z,100260.95
2023-01-06T23:19:38.906Z,100255.65
2023-01-06T23:22:05.887Z,100264.39
2023-01-06T23:24:33.693Z,100266.63
2023-01-06T23:27:00.941Z,100272.45
2023-01-06T23:29:28.077Z,100278.44
2023-01-06T23:31:55.452Z,100282.23
2023-01-06T23:34:22.722Z,100281.90
2023-01-06T23:36:50.793Z,100281.77
2023-01-06T23:39:18.875Z,100284.04
2023-01-06T23:41:46.015Z,100286.29
2023-01-06T23:44:17.209Z,100292.48
2023-01-06T23:46:45.143Z,100298.48
2023-01-06T23:49:13.792Z,100297.98
2023-01-06T23:51:41.364Z,100298.55
2023-01-06T23:54:09.552Z,100301.31
2023-01-06T23:56:38.348Z,100298.95
2023-01-06T23:59:08.035Z,100296.13
